sensor_id;sensor_type;location;lat;lon;timestamp;P1;durP1;ratioP1;P2;durP2;ratioP2
54368;SDS011;40266;52.434;17.056;2023-07-31T00:01:37;10.20;;;4.10;;
54368;SDS011;40266;52.434;17.056;2023-07-31T00:04:20;6.20;;;3.70;;
54368;SDS011;40266;52.434;17.056;2023-07-31T00:07:03;7.40;;;3.90;;
54368;SDS011;40266;52.434;17.056;2023-07-31T00:09:48;5.70;;;3.30;;
54368;SDS011;40266;52.434;17.056;2023-07-31T00:12:31;6.80;;;3.50;;
54368;SDS011;40266;52.434;17.056;2023-07-31T00:15:15;5.30;;;2.90;;
54368;SDS011;40266;52.434;17.056;2023-07-31T00:17:58;9.40;;;3.50;;
54368;SDS011;40266;52.434;17.056;2023-07-31T00:20:42;7.60;;;3.50;;
54368;SDS011;40266;52.434;17.056;2023-07-31T00:23:25;4.60;;;3.50;;
54368;SDS011;40266;52.434;17.056;2023-07-31T00:26:09;5.70;;;3.70;;
54368;SDS011;40266;52.434;17.056;2023-07-31T00:28:52;6.00;;;3.60;;
54368;SDS011;40266;52.434;17.056;2023-07-31T00:31:35;8.70;;;3.50;;
54368;SDS011;40266;52.434;17.056;2023-07-31T00:34:18;9.30;;;3.80;;
54368;SDS011;40266;52.434;17.056;2023-07-31T00:37:01;8.90;;;3.60;;
54368;SDS011;40266;52.434;17.056;2023-07-31T00:39:44;9.00;;;3.90;;
54368;SDS011;40266;52.434;17.056;2023-07-31T00:42:27;7.00;;;3.50;;
54368;SDS011;40266;52.434;17.056;2023-07-31T00:45:10;9.60;;;3.80;;
54368;SDS011;40266;52.434;17.056;2023-07-31T00:47:53;6.50;;;3.30;;
54368;SDS011;40266;52.434;17.056;2023-07-31T00:50:36;9.40;;;3.70;;
54368;SDS011;40266;52.434;17.056;2023-07-31T00:56:29;10.30;;;4.10;;
54368;SDS011;40266;52.434;17.056;2023-07-31T00:59:13;7.70;;;3.90;;
54368;SDS011;40266;52.434;17.056;2023-07-31T01:01:56;9.40;;;4.30;;
54368;SDS011;40266;52.434;17.056;2023-07-31T01:04:41;6.30;;;3.60;;
54368;SDS011;40266;52.434;17.056;2023-07-31T01:10:23;6.20;;;4.10;;
54368;SDS011;40266;52.434;17.056;2023-07-31T01:13:13;8.10;;;3.70;;
54368;SDS011;40266;52.434;17.056;2023-07-31T01:15:57;6.00;;;3.80;;
54368;SDS011;40266;52.434;17.056;2023-07-31T01:18:40;6.90;;;3.90;;
54368;SDS011;40266;52.434;17.056;2023-07-31T01:24:20;6.90;;;3.80;;
54368;SDS011;40266;52.434;17.056;2023-07-31T01:27:06;9.00;;;4.20;;
54368;SDS011;40266;52.434;17.056;2023-07-31T01:30:10;6.50;;;4.20;;
54368;SDS011;40266;52.434;17.056;2023-07-31T01:32:59;7.30;;;4.20;;
54368;SDS011;40266;52.434;17.056;2023-07-31T01:35:46;10.20;;;4.70;;
54368;SDS011;40266;52.434;17.056;2023-07-31T01:38:31;10.30;;;4.20;;
54368;SDS011;40266;52.434;17.056;2023-07-31T01:41:16;5.80;;;4.40;;
54368;SDS011;40266;52.434;17.056;2023-07-31T01:43:59;5.80;;;4.10;;
54368;SDS011;40266;52.434;17.056;2023-07-31T01:46:42;10.90;;;4.40;;
54368;SDS011;40266;52.434;17.056;2023-07-31T01:49:25;8.10;;;4.40;;
54368;SDS011;40266;52.434;17.056;2023-07-31T01:52:08;8.80;;;5.20;;
54368;SDS011;40266;52.434;17.056;2023-07-31T01:54:52;11.80;;;4.50;;
54368;SDS011;40266;52.434;17.056;2023-07-31T01:57:36;6.60;;;4.60;;
54368;SDS011;40266;52.434;17.056;2023-07-31T02:00:20;11.50;;;4.40;;
54368;SDS011;40266;52.434;17.056;2023-07-31T02:03:03;12.00;;;4.60;;
54368;SDS011;40266;52.434;17.056;2023-07-31T02:05:46;9.10;;;4.50;;
54368;SDS011;40266;52.434;17.056;2023-07-31T02:08:30;8.20;;;4.50;;
54368;SDS011;40266;52.434;17.056;2023-07-31T02:11:13;11.60;;;5.00;;
54368;SDS011;40266;52.434;17.056;2023-07-31T02:13:56;8.60;;;4.70;;
54368;SDS011;40266;52.434;17.056;2023-07-31T02:16:38;8.60;;;4.60;;
54368;SDS011;40266;52.434;17.056;2023-07-31T02:19:23;6.40;;;4.60;;
54368;SDS011;40266;52.434;17.056;2023-07-31T02:22:06;8.70;;;4.60;;
54368;SDS011;40266;52.434;17.056;2023-07-31T02:24:49;7.30;;;3.80;;
54368;SDS011;40266;52.434;17.056;2023-07-31T02:27:31;7.80;;;4.50;;
54368;SDS011;40266;52.434;17.056;2023-07-31T02:30:14;6.70;;;4.20;;
54368;SDS011;40266;52.434;17.056;2023-07-31T02:32:57;8.40;;;4.20;;
54368;SDS011;40266;52.434;17.056;2023-07-31T02:35:41;6.10;;;4.10;;
54368;SDS011;40266;52.434;17.056;2023-07-31T02:38:24;7.50;;;4.40;;
54368;SDS011;40266;52.434;17.056;2023-07-31T02:41:07;8.60;;;4.50;;
54368;SDS011;40266;52.434;17.056;2023-07-31T02:43:50;7.90;;;5.10;;
54368;SDS011;40266;52.434;17.056;2023-07-31T02:46:33;10.90;;;5.00;;
54368;SDS011;40266;52.434;17.056;2023-07-31T02:49:16;6.90;;;4.20;;
54368;SDS011;40266;52.434;17.056;2023-07-31T02:51:59;7.40;;;4.50;;
54368;SDS011;40266;52.434;17.056;2023-07-31T02:54:41;8.50;;;5.40;;
54368;SDS011;40266;52.434;17.056;2023-07-31T02:57:24;9.00;;;4.50;;
54368;SDS011;40266;52.434;17.056;2023-07-31T03:00:07;13.80;;;5.80;;
54368;SDS011;40266;52.434;17.056;2023-07-31T03:02:52;12.10;;;5.90;;
54368;SDS011;40266;52.434;17.056;2023-07-31T03:05:35;8.10;;;5.00;;
54368;SDS011;40266;52.434;17.056;2023-07-31T03:08:18;15.20;;;5.60;;
54368;SDS011;40266;52.434;17.056;2023-07-31T03:11:01;8.90;;;5.20;;
54368;SDS011;40266;52.434;17.056;2023-07-31T03:13:44;13.20;;;6.70;;
54368;SDS011;40266;52.434;17.056;2023-07-31T03:16:26;11.90;;;5.20;;
54368;SDS011;40266;52.434;17.056;2023-07-31T03:19:10;13.50;;;5.30;;
54368;SDS011;40266;52.434;17.056;2023-07-31T03:21:53;12.20;;;5.70;;
54368;SDS011;40266;52.434;17.056;2023-07-31T03:24:36;10.30;;;5.60;;
54368;SDS011;40266;52.434;17.056;2023-07-31T03:27:18;8.60;;;4.70;;
54368;SDS011;40266;52.434;17.056;2023-07-31T03:30:02;14.40;;;5.80;;
54368;SDS011;40266;52.434;17.056;2023-07-31T03:32:46;8.50;;;5.90;;
54368;SDS011;40266;52.434;17.056;2023-07-31T03:35:29;10.20;;;5.40;;
54368;SDS011;40266;52.434;17.056;2023-07-31T03:38:12;13.20;;;6.60;;
54368;SDS011;40266;52.434;17.056;2023-07-31T03:40:55;13.00;;;6.40;;
54368;SDS011;40266;52.434;17.056;2023-07-31T03:43:38;13.00;;;6.60;;
54368;SDS011;40266;52.434;17.056;2023-07-31T03:46:22;13.20;;;6.50;;
54368;SDS011;40266;52.434;17.056;2023-07-31T03:49:06;13.20;;;6.30;;
54368;SDS011;40266;52.434;17.056;2023-07-31T03:51:50;11.00;;;6.70;;
54368;SDS011;40266;52.434;17.056;2023-07-31T03:54:32;12.80;;;6.10;;
54368;SDS011;40266;52.434;17.056;2023-07-31T03:57:15;11.30;;;6.00;;
54368;SDS011;40266;52.434;17.056;2023-07-31T03:59:59;12.70;;;6.80;;
54368;SDS011;40266;52.434;17.056;2023-07-31T04:02:42;12.70;;;5.80;;
54368;SDS011;40266;52.434;17.056;2023-07-31T04:05:25;16.80;;;7.10;;
54368;SDS011;40266;52.434;17.056;2023-07-31T04:08:08;12.80;;;6.50;;
54368;SDS011;40266;52.434;17.056;2023-07-31T04:10:51;10.20;;;5.90;;
54368;SDS011;40266;52.434;17.056;2023-07-31T04:13:34;12.60;;;6.10;;
54368;SDS011;40266;52.434;17.056;2023-07-31T04:16:17;15.30;;;6.30;;
54368;SDS011;40266;52.434;17.056;2023-07-31T04:18:59;16.10;;;6.70;;
54368;SDS011;40266;52.434;17.056;2023-07-31T04:21:42;15.20;;;7.00;;
54368;SDS011;40266;52.434;17.056;2023-07-31T04:24:26;12.20;;;7.10;;
54368;SDS011;40266;52.434;17.056;2023-07-31T04:27:09;10.40;;;5.60;;
54368;SDS011;40266;52.434;17.056;2023-07-31T04:29:51;8.50;;;5.50;;
54368;SDS011;40266;52.434;17.056;2023-07-31T04:32:34;14.10;;;7.30;;
54368;SDS011;40266;52.434;17.056;2023-07-31T04:35:18;12.60;;;6.10;;
54368;SDS011;40266;52.434;17.056;2023-07-31T04:38:01;9.70;;;5.70;;
54368;SDS011;40266;52.434;17.056;2023-07-31T04:40:44;12.40;;;6.00;;
54368;SDS011;40266;52.434;17.056;2023-07-31T04:43:27;14.40;;;6.90;;
54368;SDS011;40266;52.434;17.056;2023-07-31T04:46:10;10.60;;;6.00;;
54368;SDS011;40266;52.434;17.056;2023-07-31T04:48:53;14.90;;;6.70;;
54368;SDS011;40266;52.434;17.056;2023-07-31T04:51:36;10.70;;;6.60;;
54368;SDS011;40266;52.434;17.056;2023-07-31T04:54:19;11.90;;;6.20;;
54368;SDS011;40266;52.434;17.056;2023-07-31T04:57:02;13.20;;;6.70;;
54368;SDS011;40266;52.434;17.056;2023-07-31T04:59:45;10.40;;;5.80;;
54368;SDS011;40266;52.434;17.056;2023-07-31T05:02:30;11.50;;;5.70;;
54368;SDS011;40266;52.434;17.056;2023-07-31T05:05:13;17.10;;;6.60;;
54368;SDS011;40266;52.434;17.056;2023-07-31T05:07:56;12.30;;;6.00;;
54368;SDS011;40266;52.434;17.056;2023-07-31T05:10:39;12.80;;;6.40;;
54368;SDS011;40266;52.434;17.056;2023-07-31T05:13:22;14.40;;;6.00;;
54368;SDS011;40266;52.434;17.056;2023-07-31T05:16:05;11.30;;;6.60;;
54368;SDS011;40266;52.434;17.056;2023-07-31T05:18:48;10.00;;;5.70;;
54368;SDS011;40266;52.434;17.056;2023-07-31T05:21:31;11.60;;;5.80;;
54368;SDS011;40266;52.434;17.056;2023-07-31T05:24:14;14.60;;;7.00;;
54368;SDS011;40266;52.434;17.056;2023-07-31T05:26:56;9.00;;;5.70;;
54368;SDS011;40266;52.434;17.056;2023-07-31T05:29:40;12.00;;;5.60;;
54368;SDS011;40266;52.434;17.056;2023-07-31T05:32:23;13.40;;;5.30;;
54368;SDS011;40266;52.434;17.056;2023-07-31T05:35:06;9.90;;;5.30;;
54368;SDS011;40266;52.434;17.056;2023-07-31T05:37:49;13.50;;;6.00;;
54368;SDS011;40266;52.434;17.056;2023-07-31T05:40:33;11.00;;;5.30;;
54368;SDS011;40266;52.434;17.056;2023-07-31T05:43:16;11.10;;;5.10;;
54368;SDS011;40266;52.434;17.056;2023-07-31T05:45:58;8.60;;;4.80;;
54368;SDS011;40266;52.434;17.056;2023-07-31T05:48:41;10.10;;;5.10;;
54368;SDS011;40266;52.434;17.056;2023-07-31T05:51:24;9.20;;;4.60;;
54368;SDS011;40266;52.434;17.056;2023-07-31T05:54:07;10.10;;;4.90;;
54368;SDS011;40266;52.434;17.056;2023-07-31T05:56:50;10.60;;;4.90;;
54368;SDS011;40266;52.434;17.056;2023-07-31T05:59:33;10.50;;;6.00;;
54368;SDS011;40266;52.434;17.056;2023-07-31T06:02:16;11.50;;;4.90;;
54368;SDS011;40266;52.434;17.056;2023-07-31T06:04:59;10.20;;;4.50;;
54368;SDS011;40266;52.434;17.056;2023-07-31T06:07:43;8.40;;;4.80;;
54368;SDS011;40266;52.434;17.056;2023-07-31T06:10:26;11.10;;;4.70;;
54368;SDS011;40266;52.434;17.056;2023-07-31T06:13:09;10.70;;;5.10;;
54368;SDS011;40266;52.434;17.056;2023-07-31T06:15:52;9.20;;;4.70;;
54368;SDS011;40266;52.434;17.056;2023-07-31T06:18:35;9.30;;;4.50;;
54368;SDS011;40266;52.434;17.056;2023-07-31T06:21:18;6.70;;;4.40;;
54368;SDS011;40266;52.434;17.056;2023-07-31T06:24:01;10.00;;;4.30;;
54368;SDS011;40266;52.434;17.056;2023-07-31T06:26:44;8.40;;;4.60;;
54368;SDS011;40266;52.434;17.056;2023-07-31T06:29:27;6.10;;;4.30;;
54368;SDS011;40266;52.434;17.056;2023-07-31T06:32:10;7.30;;;3.80;;
54368;SDS011;40266;52.434;17.056;2023-07-31T06:34:53;17.50;;;5.20;;
54368;SDS011;40266;52.434;17.056;2023-07-31T06:37:36;9.20;;;4.30;;
54368;SDS011;40266;52.434;17.056;2023-07-31T06:40:22;11.50;;;4.60;;
54368;SDS011;40266;52.434;17.056;2023-07-31T06:43:05;7.00;;;3.80;;
54368;SDS011;40266;52.434;17.056;2023-07-31T06:45:51;9.10;;;3.70;;
54368;SDS011;40266;52.434;17.056;2023-07-31T06:48:34;9.10;;;3.80;;
54368;SDS011;40266;52.434;17.056;2023-07-31T06:51:17;5.30;;;3.70;;
54368;SDS011;40266;52.434;17.056;2023-07-31T06:54:00;6.80;;;4.10;;
54368;SDS011;40266;52.434;17.056;2023-07-31T06:56:43;7.30;;;4.20;;
54368;SDS011;40266;52.434;17.056;2023-07-31T06:59:27;9.40;;;4.50;;
54368;SDS011;40266;52.434;17.056;2023-07-31T07:02:10;9.80;;;4.00;;
54368;SDS011;40266;52.434;17.056;2023-07-31T07:04:53;8.80;;;4.10;;
54368;SDS011;40266;52.434;17.056;2023-07-31T07:07:35;6.40;;;4.40;;
54368;SDS011;40266;52.434;17.056;2023-07-31T07:10:19;8.20;;;4.30;;
54368;SDS011;40266;52.434;17.056;2023-07-31T07:13:02;9.60;;;4.00;;
54368;SDS011;40266;52.434;17.056;2023-07-31T07:15:48;10.50;;;4.00;;
54368;SDS011;40266;52.434;17.056;2023-07-31T07:18:32;9.20;;;4.20;;
54368;SDS011;40266;52.434;17.056;2023-07-31T07:21:16;8.10;;;3.60;;
54368;SDS011;40266;52.434;17.056;2023-07-31T07:24:00;7.80;;;4.20;;
54368;SDS011;40266;52.434;17.056;2023-07-31T07:26:43;14.80;;;4.10;;
54368;SDS011;40266;52.434;17.056;2023-07-31T07:29:27;9.90;;;3.80;;
54368;SDS011;40266;52.434;17.056;2023-07-31T07:32:10;8.40;;;3.60;;
54368;SDS011;40266;52.434;17.056;2023-07-31T07:34:54;7.40;;;3.50;;
54368;SDS011;40266;52.434;17.056;2023-07-31T07:37:38;8.60;;;3.70;;
54368;SDS011;40266;52.434;17.056;2023-07-31T07:40:21;10.00;;;4.20;;
54368;SDS011;40266;52.434;17.056;2023-07-31T07:43:04;9.50;;;3.60;;
54368;SDS011;40266;52.434;17.056;2023-07-31T07:45:47;10.50;;;3.70;;
54368;SDS011;40266;52.434;17.056;2023-07-31T07:48:30;6.50;;;3.50;;
54368;SDS011;40266;52.434;17.056;2023-07-31T07:51:13;11.10;;;3.60;;
54368;SDS011;40266;52.434;17.056;2023-07-31T07:53:55;5.70;;;2.90;;
54368;SDS011;40266;52.434;17.056;2023-07-31T07:56:38;7.80;;;3.60;;
54368;SDS011;40266;52.434;17.056;2023-07-31T07:59:22;6.70;;;3.10;;
54368;SDS011;40266;52.434;17.056;2023-07-31T08:02:05;10.40;;;3.50;;
54368;SDS011;40266;52.434;17.056;2023-07-31T08:04:48;8.30;;;3.30;;
54368;SDS011;40266;52.434;17.056;2023-07-31T08:07:31;8.70;;;3.40;;
54368;SDS011;40266;52.434;17.056;2023-07-31T08:10:14;8.10;;;3.30;;
54368;SDS011;40266;52.434;17.056;2023-07-31T08:12:57;7.20;;;3.10;;
54368;SDS011;40266;52.434;17.056;2023-07-31T08:15:42;5.80;;;3.00;;
54368;SDS011;40266;52.434;17.056;2023-07-31T08:18:25;8.80;;;2.80;;
54368;SDS011;40266;52.434;17.056;2023-07-31T08:21:08;8.30;;;3.30;;
54368;SDS011;40266;52.434;17.056;2023-07-31T08:23:51;7.80;;;3.10;;
54368;SDS011;40266;52.434;17.056;2023-07-31T08:26:34;6.70;;;3.10;;
54368;SDS011;40266;52.434;17.056;2023-07-31T08:29:17;7.20;;;3.30;;
54368;SDS011;40266;52.434;17.056;2023-07-31T08:32:00;10.00;;;3.10;;
54368;SDS011;40266;52.434;17.056;2023-07-31T08:34:43;7.00;;;3.10;;
54368;SDS011;40266;52.434;17.056;2023-07-31T08:37:26;7.80;;;3.20;;
54368;SDS011;40266;52.434;17.056;2023-07-31T08:40:09;9.10;;;3.30;;
54368;SDS011;40266;52.434;17.056;2023-07-31T08:42:53;7.90;;;3.40;;
54368;SDS011;40266;52.434;17.056;2023-07-31T08:45:39;8.50;;;3.30;;
54368;SDS011;40266;52.434;17.056;2023-07-31T08:48:24;7.50;;;2.80;;
54368;SDS011;40266;52.434;17.056;2023-07-31T08:51:09;7.40;;;3.90;;
54368;SDS011;40266;52.434;17.056;2023-07-31T08:53:53;6.00;;;3.20;;
54368;SDS011;40266;52.434;17.056;2023-07-31T08:56:36;10.30;;;2.80;;
54368;SDS011;40266;52.434;17.056;2023-07-31T08:59:20;6.30;;;3.50;;
54368;SDS011;40266;52.434;17.056;2023-07-31T09:02:06;10.30;;;3.30;;
54368;SDS011;40266;52.434;17.056;2023-07-31T09:04:50;9.00;;;3.00;;
54368;SDS011;40266;52.434;17.056;2023-07-31T09:07:34;5.90;;;2.70;;
54368;SDS011;40266;52.434;17.056;2023-07-31T09:10:18;9.60;;;3.60;;
54368;SDS011;40266;52.434;17.056;2023-07-31T09:13:01;6.60;;;3.00;;
54368;SDS011;40266;52.434;17.056;2023-07-31T09:15:45;8.10;;;3.10;;
54368;SDS011;40266;52.434;17.056;2023-07-31T09:18:29;7.50;;;2.80;;
54368;SDS011;40266;52.434;17.056;2023-07-31T09:21:12;7.40;;;3.00;;
54368;SDS011;40266;52.434;17.056;2023-07-31T09:23:55;8.10;;;3.10;;
54368;SDS011;40266;52.434;17.056;2023-07-31T09:26:39;8.40;;;2.80;;
54368;SDS011;40266;52.434;17.056;2023-07-31T09:29:23;7.70;;;3.30;;
54368;SDS011;40266;52.434;17.056;2023-07-31T09:32:06;10.00;;;2.90;;
54368;SDS011;40266;52.434;17.056;2023-07-31T09:34:58;5.90;;;3.20;;
54368;SDS011;40266;52.434;17.056;2023-07-31T09:37:41;4.60;;;3.00;;
54368;SDS011;40266;52.434;17.056;2023-07-31T09:40:28;6.00;;;2.50;;
54368;SDS011;40266;52.434;17.056;2023-07-31T09:43:13;8.10;;;2.90;;
54368;SDS011;40266;52.434;17.056;2023-07-31T09:45:59;10.30;;;2.70;;
54368;SDS011;40266;52.434;17.056;2023-07-31T09:48:42;8.00;;;3.30;;
54368;SDS011;40266;52.434;17.056;2023-07-31T09:51:26;8.20;;;2.90;;
54368;SDS011;40266;52.434;17.056;2023-07-31T09:54:10;6.00;;;2.70;;
54368;SDS011;40266;52.434;17.056;2023-07-31T09:56:54;6.20;;;3.40;;
54368;SDS011;40266;52.434;17.056;2023-07-31T09:59:38;6.20;;;3.00;;
54368;SDS011;40266;52.434;17.056;2023-07-31T10:02:22;10.30;;;3.50;;
54368;SDS011;40266;52.434;17.056;2023-07-31T10:05:06;10.00;;;3.70;;
54368;SDS011;40266;52.434;17.056;2023-07-31T10:07:56;6.10;;;3.80;;
54368;SDS011;40266;52.434;17.056;2023-07-31T10:10:43;8.40;;;4.30;;
54368;SDS011;40266;52.434;17.056;2023-07-31T10:13:27;8.60;;;3.60;;
54368;SDS011;40266;52.434;17.056;2023-07-31T10:16:11;8.30;;;3.60;;
54368;SDS011;40266;52.434;17.056;2023-07-31T10:18:56;6.50;;;4.10;;
54368;SDS011;40266;52.434;17.056;2023-07-31T10:21:39;9.20;;;4.30;;
54368;SDS011;40266;52.434;17.056;2023-07-31T10:24:24;12.70;;;4.20;;
54368;SDS011;40266;52.434;17.056;2023-07-31T10:27:07;12.30;;;4.00;;
54368;SDS011;40266;52.434;17.056;2023-07-31T10:29:52;9.10;;;3.90;;
54368;SDS011;40266;52.434;17.056;2023-07-31T10:32:38;6.80;;;4.00;;
54368;SDS011;40266;52.434;17.056;2023-07-31T10:35:23;11.60;;;4.80;;
54368;SDS011;40266;52.434;17.056;2023-07-31T10:38:10;7.90;;;3.90;;
54368;SDS011;40266;52.434;17.056;2023-07-31T10:40:54;9.70;;;4.10;;
54368;SDS011;40266;52.434;17.056;2023-07-31T10:43:54;9.40;;;3.60;;
54368;SDS011;40266;52.434;17.056;2023-07-31T10:46:39;12.20;;;4.20;;
54368;SDS011;40266;52.434;17.056;2023-07-31T10:49:22;7.00;;;3.70;;
54368;SDS011;40266;52.434;17.056;2023-07-31T10:52:08;7.70;;;3.60;;
54368;SDS011;40266;52.434;17.056;2023-07-31T10:58:23;8.80;;;3.90;;
54368;SDS011;40266;52.434;17.056;2023-07-31T11:01:06;9.70;;;4.30;;
54368;SDS011;40266;52.434;17.056;2023-07-31T11:03:49;10.50;;;5.90;;
54368;SDS011;40266;52.434;17.056;2023-07-31T11:06:36;7.50;;;4.20;;
54368;SDS011;40266;52.434;17.056;2023-07-31T11:09:19;9.80;;;4.80;;
54368;SDS011;40266;52.434;17.056;2023-07-31T11:12:02;8.90;;;4.30;;
54368;SDS011;40266;52.434;17.056;2023-07-31T11:14:53;7.20;;;4.00;;
54368;SDS011;40266;52.434;17.056;2023-07-31T11:17:40;5.80;;;3.50;;
54368;SDS011;40266;52.434;17.056;2023-07-31T11:20:24;9.60;;;3.70;;
54368;SDS011;40266;52.434;17.056;2023-07-31T11:23:08;8.00;;;3.20;;
54368;SDS011;40266;52.434;17.056;2023-07-31T11:25:51;6.70;;;3.10;;
54368;SDS011;40266;52.434;17.056;2023-07-31T11:28:34;4.50;;;3.20;;
54368;SDS011;40266;52.434;17.056;2023-07-31T11:31:18;5.30;;;2.80;;
54368;SDS011;40266;52.434;17.056;2023-07-31T11:34:08;6.10;;;2.90;;
54368;SDS011;40266;52.434;17.056;2023-07-31T11:36:54;4.30;;;2.90;;
54368;SDS011;40266;52.434;17.056;2023-07-31T11:39:38;4.50;;;2.80;;
54368;SDS011;40266;52.434;17.056;2023-07-31T11:42:21;3.40;;;3.10;;
54368;SDS011;40266;52.434;17.056;2023-07-31T11:45:05;7.50;;;3.20;;
54368;SDS011;40266;52.434;17.056;2023-07-31T11:47:49;5.40;;;2.70;;
54368;SDS011;40266;52.434;17.056;2023-07-31T11:50:33;3.10;;;2.50;;
54368;SDS011;40266;52.434;17.056;2023-07-31T11:54:01;7.10;;;3.20;;
54368;SDS011;40266;52.434;17.056;2023-07-31T11:56:28;4.60;;;2.40;;
54368;SDS011;40266;52.434;17.056;2023-07-31T11:59:12;4.40;;;2.20;;
54368;SDS011;40266;52.434;17.056;2023-07-31T12:01:56;2.60;;;2.20;;
54368;SDS011;40266;52.434;17.056;2023-07-31T12:04:39;4.20;;;2.10;;
54368;SDS011;40266;52.434;17.056;2023-07-31T12:07:23;5.10;;;2.20;;
54368;SDS011;40266;52.434;17.056;2023-07-31T12:10:07;4.50;;;2.10;;
54368;SDS011;40266;52.434;17.056;2023-07-31T12:13:00;4.80;;;2.70;;
54368;SDS011;40266;52.434;17.056;2023-07-31T12:15:45;6.00;;;2.90;;
54368;SDS011;40266;52.434;17.056;2023-07-31T12:18:37;6.10;;;2.70;;
54368;SDS011;40266;52.434;17.056;2023-07-31T12:21:23;6.30;;;3.00;;
54368;SDS011;40266;52.434;17.056;2023-07-31T12:24:06;3.70;;;3.10;;
54368;SDS011;40266;52.434;17.056;2023-07-31T12:26:49;6.20;;;3.90;;
54368;SDS011;40266;52.434;17.056;2023-07-31T12:29:35;4.00;;;3.20;;
54368;SDS011;40266;52.434;17.056;2023-07-31T12:32:24;6.40;;;3.70;;
54368;SDS011;40266;52.434;17.056;2023-07-31T12:35:08;5.90;;;3.90;;
54368;SDS011;40266;52.434;17.056;2023-07-31T12:37:51;5.10;;;3.60;;
54368;SDS011;40266;52.434;17.056;2023-07-31T12:40:36;5.50;;;3.60;;
54368;SDS011;40266;52.434;17.056;2023-07-31T12:43:21;8.60;;;4.20;;
54368;SDS011;40266;52.434;17.056;2023-07-31T12:46:04;7.00;;;4.20;;
54368;SDS011;40266;52.434;17.056;2023-07-31T12:48:50;7.70;;;4.10;;
54368;SDS011;40266;52.434;17.056;2023-07-31T12:51:33;10.10;;;4.00;;
54368;SDS011;40266;52.434;17.056;2023-07-31T12:54:16;5.90;;;3.90;;
54368;SDS011;40266;52.434;17.056;2023-07-31T12:56:59;7.60;;;3.90;;
54368;SDS011;40266;52.434;17.056;2023-07-31T12:59:42;9.00;;;4.60;;
54368;SDS011;40266;52.434;17.056;2023-07-31T13:02:25;6.60;;;3.80;;
54368;SDS011;40266;52.434;17.056;2023-07-31T13:05:08;8.50;;;3.70;;
54368;SDS011;40266;52.434;17.056;2023-07-31T13:07:51;8.00;;;3.80;;
54368;SDS011;40266;52.434;17.056;2023-07-31T13:10:35;8.10;;;4.30;;
54368;SDS011;40266;52.434;17.056;2023-07-31T13:13:18;8.50;;;4.20;;
54368;SDS011;40266;52.434;17.056;2023-07-31T13:16:00;6.30;;;3.40;;
54368;SDS011;40266;52.434;17.056;2023-07-31T13:18:44;8.80;;;4.60;;
54368;SDS011;40266;52.434;17.056;2023-07-31T13:21:26;7.00;;;3.70;;
54368;SDS011;40266;52.434;17.056;2023-07-31T13:24:09;8.00;;;4.20;;
54368;SDS011;40266;52.434;17.056;2023-07-31T13:26:53;6.20;;;3.80;;
54368;SDS011;40266;52.434;17.056;2023-07-31T13:29:37;11.10;;;4.50;;
54368;SDS011;40266;52.434;17.056;2023-07-31T13:32:20;6.10;;;4.00;;
54368;SDS011;40266;52.434;17.056;2023-07-31T13:35:07;9.30;;;4.00;;
54368;SDS011;40266;52.434;17.056;2023-07-31T13:37:50;7.80;;;3.90;;
54368;SDS011;40266;52.434;17.056;2023-07-31T13:40:33;7.20;;;3.70;;
54368;SDS011;40266;52.434;17.056;2023-07-31T13:43:16;6.10;;;3.50;;
54368;SDS011;40266;52.434;17.056;2023-07-31T13:45:59;6.40;;;3.70;;
54368;SDS011;40266;52.434;17.056;2023-07-31T13:48:49;4.60;;;3.60;;
54368;SDS011;40266;52.434;17.056;2023-07-31T13:51:32;7.40;;;3.90;;
54368;SDS011;40266;52.434;17.056;2023-07-31T13:54:16;8.50;;;3.80;;
54368;SDS011;40266;52.434;17.056;2023-07-31T13:56:59;6.40;;;3.50;;
54368;SDS011;40266;52.434;17.056;2023-07-31T13:59:42;5.40;;;3.60;;
54368;SDS011;40266;52.434;17.056;2023-07-31T14:02:25;6.80;;;3.70;;
54368;SDS011;40266;52.434;17.056;2023-07-31T14:05:08;5.20;;;3.60;;
54368;SDS011;40266;52.434;17.056;2023-07-31T14:07:52;10.00;;;3.50;;
54368;SDS011;40266;52.434;17.056;2023-07-31T14:10:35;7.70;;;3.60;;
54368;SDS011;40266;52.434;17.056;2023-07-31T14:13:17;4.90;;;3.40;;
54368;SDS011;40266;52.434;17.056;2023-07-31T14:16:00;7.40;;;3.90;;
54368;SDS011;40266;52.434;17.056;2023-07-31T14:18:43;5.20;;;3.60;;
54368;SDS011;40266;52.434;17.056;2023-07-31T14:21:28;6.90;;;4.20;;
54368;SDS011;40266;52.434;17.056;2023-07-31T14:24:11;7.70;;;3.30;;
54368;SDS011;40266;52.434;17.056;2023-07-31T14:26:54;5.50;;;3.20;;
54368;SDS011;40266;52.434;17.056;2023-07-31T14:29:37;3.70;;;3.30;;
54368;SDS011;40266;52.434;17.056;2023-07-31T14:32:20;6.70;;;3.60;;
54368;SDS011;40266;52.434;17.056;2023-07-31T14:35:04;8.40;;;3.80;;
54368;SDS011;40266;52.434;17.056;2023-07-31T14:37:47;10.00;;;3.80;;
54368;SDS011;40266;52.434;17.056;2023-07-31T14:40:29;8.20;;;3.90;;
54368;SDS011;40266;52.434;17.056;2023-07-31T14:43:12;5.00;;;3.00;;
54368;SDS011;40266;52.434;17.056;2023-07-31T14:45:55;6.30;;;4.00;;
54368;SDS011;40266;52.434;17.056;2023-07-31T14:48:42;4.90;;;3.40;;
54368;SDS011;40266;52.434;17.056;2023-07-31T14:51:24;9.80;;;3.70;;
54368;SDS011;40266;52.434;17.056;2023-07-31T14:54:07;8.00;;;3.60;;
54368;SDS011;40266;52.434;17.056;2023-07-31T14:56:51;46.90;;;18.20;;
54368;SDS011;40266;52.434;17.056;2023-07-31T14:59:34;14.60;;;5.00;;
54368;SDS011;40266;52.434;17.056;2023-07-31T15:02:17;6.00;;;3.50;;
54368;SDS011;40266;52.434;17.056;2023-07-31T15:04:59;7.70;;;3.10;;
54368;SDS011;40266;52.434;17.056;2023-07-31T15:07:42;4.40;;;3.40;;
54368;SDS011;40266;52.434;17.056;2023-07-31T15:10:25;5.20;;;3.40;;
54368;SDS011;40266;52.434;17.056;2023-07-31T15:13:08;8.50;;;3.50;;
54368;SDS011;40266;52.434;17.056;2023-07-31T15:15:51;5.00;;;3.20;;
54368;SDS011;40266;52.434;17.056;2023-07-31T15:18:34;15.10;;;3.80;;
54368;SDS011;40266;52.434;17.056;2023-07-31T15:21:17;9.50;;;3.70;;
54368;SDS011;40266;52.434;17.056;2023-07-31T15:24:00;4.90;;;3.00;;
54368;SDS011;40266;52.434;17.056;2023-07-31T15:26:42;6.80;;;3.50;;
54368;SDS011;40266;52.434;17.056;2023-07-31T15:29:25;6.40;;;3.40;;
54368;SDS011;40266;52.434;17.056;2023-07-31T15:32:08;8.10;;;3.00;;
54368;SDS011;40266;52.434;17.056;2023-07-31T15:34:51;4.10;;;2.90;;
54368;SDS011;40266;52.434;17.056;2023-07-31T15:37:34;6.00;;;3.70;;
54368;SDS011;40266;52.434;17.056;2023-07-31T15:40:17;8.50;;;4.40;;
54368;SDS011;40266;52.434;17.056;2023-07-31T15:43:00;13.20;;;3.50;;
54368;SDS011;40266;52.434;17.056;2023-07-31T15:45:46;6.10;;;3.30;;
54368;SDS011;40266;52.434;17.056;2023-07-31T15:48:28;4.20;;;2.70;;
54368;SDS011;40266;52.434;17.056;2023-07-31T15:51:11;8.80;;;3.30;;
54368;SDS011;40266;52.434;17.056;2023-07-31T15:53:54;6.50;;;3.60;;
54368;SDS011;40266;52.434;17.056;2023-07-31T15:56:37;6.00;;;3.30;;
54368;SDS011;40266;52.434;17.056;2023-07-31T15:59:20;10.10;;;3.30;;
54368;SDS011;40266;52.434;17.056;2023-07-31T16:02:03;7.30;;;3.30;;
54368;SDS011;40266;52.434;17.056;2023-07-31T16:04:47;6.00;;;2.90;;
54368;SDS011;40266;52.434;17.056;2023-07-31T16:07:29;5.10;;;3.10;;
54368;SDS011;40266;52.434;17.056;2023-07-31T16:10:12;7.30;;;2.70;;
54368;SDS011;40266;52.434;17.056;2023-07-31T16:12:55;5.00;;;2.40;;
54368;SDS011;40266;52.434;17.056;2023-07-31T16:15:38;5.40;;;2.30;;
54368;SDS011;40266;52.434;17.056;2023-07-31T16:18:21;5.40;;;2.70;;
54368;SDS011;40266;52.434;17.056;2023-07-31T16:21:04;5.80;;;2.70;;